Nairobi Jomo, Kenya

12:13 PM EAT on August 26, 2016 (GMT +0300)
Jomo Kenyatta | | Change Station

Elev 5328 ft 1.33 °S, 36.92 °E | Updated 13 minutes ago

Mostly Cloudy
Mostly Cloudy
63 °F
Feels Like 63 °F
N
4
Wind Variable Wind from SE

Today
High -- | Low -- °F
--% Chance of Precip.
Yesterday
High -- | Low -- °F
Precip. -- in
Pressure 30.30 in
Visibility 6.2 miles
Clouds Few 1900 ft
Mostly Cloudy 8000 ft
Dew Point 52 °F
Humidity 68%
Rainfall 0.00 in
Snow Depth Not available.
6:31 AM 6:36 PM
Last Quarter, 36% visible
METAR HKJK 260900Z 14003KT 9999 FEW019 BKN080 17/11 Q1026 NOSIG
Pressure 30.30 in
Visibility 6.2 miles
Clouds Few 1900 ft
Mostly Cloudy 8000 ft
Dew Point 52 °F
Humidity 68%
Rainfall 0.00 in
Snow Depth Not available.
6:31 AM 6:36 PM
Last Quarter, 36% visible
METAR HKJK 260900Z 14003KT 9999 FEW019 BKN080 17/11 Q1026 NOSIG

10-Day Weather Forecast

No radar image for this location.
×

Almanac

Astronomy

Aug. 26, 2016 Rise Set
Actual Time
Civil Twilight
Nautical Twilight
Astronomical Twilight
Moon
Length of Visible Light
Length of Day
Tomorrow will be .
, % of the Moon is Illuminated

Today's Extremes

Country Highs Country Lows

Community

WunderPhotos

Upload Photos

1,935,069 photos uploaded!

WunderBlog® & News

Nearby

Air Quality

  Air Quality AQ Index Pollutant
Not available.

Snow Depth

Station Depth Elevation

Earthquake Activity

City Distance Mag. Time & Date
Minimum magnitude displayed is 2.5.

Coastal Water Temperatures

Place Temperature

Stations

Nearby Weather Stations

Station Location Temp. Windchill Dew Point Humidity Wind Precip. Elev Updated Type